Terminal Aerodrome Forecast
Issued by NWS Twin Cities, MN

Home | Current Version | Previous Version | Text Only | Print | Product List | Glossary Off
Versions: 1 2 3 4 5 6 7 8 9 10 11 12 13 14 15 16 17 18 19

763
FTUS43 KMPX 262345
TAFSTC
TAF
KSTC 262345Z 2700/2724 08010KT P6SM OVC020
     FM270300 08010KT P6SM OVC030
     FM270700 08012G19KT P6SM BKN040 OVC150
     FM271400 08016G24KT P6SM SCT040 BKN100
     FM272300 07013G20KT 4SM -RA BR BKN025 OVC100=

USA.gov is the U.S. government's official web portal to all federal, state and local government web resources and services.